Ambler, Alaska
Current Conditions -  °F | °C
As of 10:36 AM on Friday 28 Nov 2014 (Local Time) from PAFM Reporting Station
Overcast Overcast  
Wind Chill:   Ceiling: 2500
Heat Index: 12°   Visibility: 10mi
Dew Point:   Wind: 5mph
Humidity: 62%   Direction: 130°SE
Pressure: 30.16"   Gusts: NA
Location:  67.09°N, 157.85°W
Report Text: PAFM 281936Z AUTO 13004KT 10SM OVC025 M11/M17 A3016 RMK AO1
Loading
Personal Weather Stations






























Interactive Weather Map New forecast layout! Learn more

10-Day Weather Forecast

Advertisements
Track Severe Weather on mobile